^^
Datos históricos de la estación: Murcia-Puente Tocinos
Diario Informe para Diciembre 4, 2019 Unidades:  Ambas    Ingés   Métrico
Diario Semanal Mensual Anual
  Máxima: Mínima: Promedio:
Temperatura: 56.8 °F /  13.8 °C 51.3 °F /  10.7 °C 54.5 °F /  12.5 °C
Punto de rocio: 48.4 °F /  9.1 °C 44.8 °F /  7.1 °C 46.9 °F /  8.3 °C
Humedad: 84% 67.5% 76%
Velocidad viento: 15.9mph /  25.6km/h - 8.1mph /  13km/h
Racha viento: 30mph /  48.3km/h - -
Viento- - OSO
Presión: 29.8 in /  1008.4 hPa 29.6 in /  1002.9 hPa -
Precipitación: 0.12 in /  3.1 mm    
 
 
Tabla de datos para Diciembre 4, 2019
Hora Temperatura Punto de rocio Presión Viento Velocidad viento Racha viento Humedad Intensidad lluvia(por hora) Nubes
00:04 51.6 °F /  10.9 °C 45 °F /  7.2 °C 29.8in /  1008.4hPa OSO 7.5mph /  12km/h 15mph /  24.1km/h 78% 0in /  0.0mm
00:09 51.6 °F /  10.9 °C 45 °F /  7.2 °C 29.8in /  1008.4hPa OSO 7.4mph /  11.9km/h 15mph /  24.1km/h 78% 0in /  0.0mm
00:14 51.6 °F /  10.9 °C 45.3 °F /  7.4 °C 29.8in /  1008.3hPa Oeste 7.4mph /  11.9km/h 15mph /  24.1km/h 78.9% 0in /  0.0mm
00:19 51.4 °F /  10.8 °C 45.1 °F /  7.3 °C 29.8in /  1008.3hPa Oeste 7.4mph /  11.9km/h 13.8mph /  22.2km/h 78.9% 0in /  0.0mm
00:24 51.4 °F /  10.8 °C 44.8 °F /  7.1 °C 29.8in /  1008.3hPa OSO 7.4mph /  11.9km/h 14mph /  22.5km/h 78.1% 0in /  0.0mm
00:29 51.6 °F /  10.9 °C 45 °F /  7.2 °C 29.8in /  1008.0hPa OSO 7.4mph /  11.9km/h 13mph /  20.9km/h 78.2% 0in /  0.0mm
00:34 51.6 °F /  10.9 °C 45.3 °F /  7.4 °C 29.8in /  1008.0hPa OSO 7.1mph /  11.4km/h 13mph /  20.9km/h 79% 0in /  0.0mm
00:39 51.6 °F /  10.9 °C 45.1 °F /  7.3 °C 29.8in /  1008.0hPa OSO 6.9mph /  11.1km/h 13.7mph /  22km/h 78.5% 0in /  0.0mm
00:44 51.6 °F /  10.9 °C 45.1 °F /  7.3 °C 29.8in /  1007.6hPa OSO 6.2mph /  10km/h 14mph /  22.5km/h 78.4% 0in /  0.0mm
00:49 51.6 °F /  10.9 °C 45 °F /  7.2 °C 29.8in /  1007.6hPa OSO 5.9mph /  9.5km/h 11.5mph /  18.5km/h 78% 0in /  0.0mm
00:54 51.4 °F /  10.8 °C 45 °F /  7.2 °C 29.8in /  1007.6hPa OSO 5.9mph /  9.5km/h 14mph /  22.5km/h 78% 0in /  0.0mm
00:59 51.4 °F /  10.8 °C 45 °F /  7.2 °C 29.8in /  1007.5hPa OSO 5.9mph /  9.5km/h 14mph /  22.5km/h 78.6% 0in /  0.0mm
01:04 51.4 °F /  10.8 °C 45 °F /  7.2 °C 29.8in /  1007.5hPa OSO 6.2mph /  9.9km/h 20.7mph /  33.3km/h 78.5% 0in /  0.0mm
01:09 51.4 °F /  10.8 °C 45 °F /  7.2 °C 29.8in /  1007.5hPa OSO 6.2mph /  10km/h 21mph /  33.8km/h 78.6% 0in /  0.0mm
01:14 51.6 °F /  10.9 °C 45.1 °F /  7.3 °C 29.7in /  1007.1hPa OSO 7.6mph /  12.2km/h 14mph /  22.5km/h 78.4% 0in /  0.0mm
01:19 51.6 °F /  10.9 °C 45 °F /  7.2 °C 29.7in /  1007.1hPa OSO 8.1mph /  13km/h 15mph /  24.1km/h 78% 0in /  0.0mm
01:24 51.6 °F /  10.9 °C 45.1 °F /  7.3 °C 29.7in /  1007.1hPa OSO 8.1mph /  13km/h 15mph /  24.1km/h 78% 0in /  0.0mm
01:29 51.8 °F /  11 °C 45.1 °F /  7.3 °C 29.7in /  1007.0hPa OSO 8.1mph /  13km/h 15mph /  24.1km/h 78% 0in /  0.0mm
01:34 52 °F /  11.1 °C 45.1 °F /  7.3 °C 29.7in /  1007.0hPa OSO 8.1mph /  13km/h 15.2mph /  24.5km/h 77.7% 0in /  0.0mm
01:39 52 °F /  11.1 °C 45 °F /  7.2 °C 29.7in /  1007.0hPa OSO 8.1mph /  13km/h 17.5mph /  28.2km/h 77% 0in /  0.0mm
01:44 52 °F /  11.1 °C 45 °F /  7.2 °C 29.7in /  1006.8hPa OSO 8.6mph /  13.8km/h 17.3mph /  27.8km/h 77% 0in /  0.0mm
01:49 52.2 °F /  11.2 °C 45.1 °F /  7.3 °C 29.7in /  1006.8hPa OSO 8.7mph /  14km/h 14mph /  22.5km/h 77% 0in /  0.0mm
01:54 52.2 °F /  11.2 °C 45.1 °F /  7.3 °C 29.7in /  1006.8hPa OSO 7.9mph /  12.7km/h 18.1mph /  29.1km/h 77% 0in /  0.0mm
01:59 52.2 °F /  11.2 °C 45.1 °F /  7.3 °C 29.7in /  1006.4hPa OSO 7.6mph /  12.2km/h 19.6mph /  31.5km/h 77% 0in /  0.0mm
02:04 52 °F /  11.1 °C 45 °F /  7.2 °C 29.7in /  1006.4hPa OSO 9.6mph /  15.4km/h 20mph /  32.2km/h 77% 0in /  0.0mm
02:09 52 °F /  11.1 °C 45 °F /  7.2 °C 29.7in /  1006.4hPa OSO 10.2mph /  16.4km/h 17.5mph /  28.2km/h 77% 0in /  0.0mm
02:14 52 °F /  11.1 °C 45 °F /  7.2 °C 29.7in /  1005.9hPa OSO 8.9mph /  14.4km/h 18.4mph /  29.6km/h 77% 0in /  0.0mm
02:19 52 °F /  11.1 °C 45 °F /  7.2 °C 29.7in /  1005.9hPa OSO 8.5mph /  13.7km/h 18mph /  29km/h 77% 0in /  0.0mm
02:24 52 °F /  11.1 °C 45.3 °F /  7.4 °C 29.7in /  1005.9hPa OSO 8.6mph /  13.9km/h 20.7mph /  33.3km/h 77.8% 0.01in /  0.2mm
02:29 51.8 °F /  11 °C 45.3 °F /  7.4 °C 29.7in /  1005.9hPa OSO 8.7mph /  14km/h 21mph /  33.8km/h 78.3% 0.01in /  0.2mm
02:34 51.6 °F /  10.9 °C 45.3 °F /  7.4 °C 29.7in /  1005.9hPa OSO 9.4mph /  15.2km/h 17mph /  27.4km/h 79.2% 0.01in /  0.2mm
02:39 51.4 °F /  10.8 °C 45.7 °F /  7.6 °C 29.7in /  1005.9hPa OSO 9.7mph /  15.6km/h 17.5mph /  28.2km/h 80.5% 0.01in /  0.2mm
02:44 51.3 °F /  10.7 °C 45.9 °F /  7.7 °C 29.7in /  1005.6hPa OSO 8.8mph /  14.2km/h 18.5mph /  29.8km/h 81.6% 0.01in /  0.2mm
02:49 51.3 °F /  10.7 °C 46 °F /  7.8 °C 29.7in /  1005.6hPa OSO 8.5mph /  13.7km/h 19mph /  30.6km/h 82% 0.01in /  0.2mm
02:54 51.3 °F /  10.7 °C 46.2 °F /  7.9 °C 29.7in /  1005.6hPa OSO 10.1mph /  16.3km/h 18.4mph /  29.6km/h 82.7% 0.01in /  0.2mm
02:59 51.3 °F /  10.7 °C 46.4 °F /  8 °C 29.7in /  1005.5hPa OSO 10.7mph /  17.2km/h 20.7mph /  33.3km/h 83% 0.01in /  0.2mm
03:04 51.4 °F /  10.8 °C 46.4 °F /  8 °C 29.7in /  1005.5hPa SO 9.9mph /  16km/h 21mph /  33.8km/h 83% 0.01in /  0.2mm
03:09 51.4 °F /  10.8 °C 46.4 °F /  8 °C 29.7in /  1005.5hPa SO 9.7mph /  15.6km/h 17.3mph /  27.8km/h 83.3% 0.01in /  0.2mm
03:14 51.3 °F /  10.7 °C 46.6 °F /  8.1 °C 29.7in /  1005.3hPa SO 8mph /  12.9km/h 17mph /  27.4km/h 84% 0.01in /  0.2mm
03:19 51.3 °F /  10.7 °C 46.8 °F /  8.2 °C 29.7in /  1005.3hPa SO 7.4mph /  11.9km/h 16.8mph /  27km/h 84% 0.01in /  0.2mm
03:24 51.4 °F /  10.8 °C 46.8 °F /  8.2 °C 29.7in /  1005.3hPa SO 6.5mph /  10.5km/h 17.3mph /  27.8km/h 84% 0.01in /  0.2mm
03:29 51.4 °F /  10.8 °C 46.8 °F /  8.2 °C 29.7in /  1005.1hPa SO 6.2mph /  10km/h 11.2mph /  18km/h 84% 0in /  0.0mm
03:34 51.4 °F /  10.8 °C 46.8 °F /  8.2 °C 29.7in /  1005.1hPa SO 5.6mph /  9km/h 13mph /  20.9km/h 84% 0in /  0.0mm
03:39 51.4 °F /  10.8 °C 46.8 °F /  8.2 °C 29.7in /  1005.1hPa SO 5.4mph /  8.7km/h 13mph /  20.9km/h 84% 0in /  0.0mm
03:44 51.4 °F /  10.8 °C 46.8 °F /  8.2 °C 29.7in /  1004.8hPa SO 6mph /  9.7km/h 13mph /  20.9km/h 84% 0in /  0.0mm
03:49 51.4 °F /  10.8 °C 46.8 °F /  8.2 °C 29.7in /  1004.8hPa OSO 6.2mph /  10km/h 9.2mph /  14.8km/h 84% 0in /  0.0mm
03:54 51.6 °F /  10.9 °C 46.9 °F /  8.3 °C 29.7in /  1004.8hPa SO 5.5mph /  8.8km/h 10mph /  16.1km/h 84% 0in /  0.0mm
03:59 51.6 °F /  10.9 °C 46.9 °F /  8.3 °C 29.7in /  1004.6hPa SO 5.2mph /  8.4km/h 10mph /  16.1km/h 84% 0in /  0.0mm
04:04 51.6 °F /  10.9 °C 46.9 °F /  8.3 °C 29.7in /  1004.6hPa SO 4.8mph /  7.8km/h 9.2mph /  14.8km/h 84% 0in /  0.0mm
04:09 52 °F /  11.1 °C 47.3 °F /  8.5 °C 29.7in /  1004.6hPa OSO 4.7mph /  7.6km/h 12.7mph /  20.4km/h 84% 0in /  0.0mm
04:14 52.2 °F /  11.2 °C 47.1 °F /  8.4 °C 29.7in /  1004.2hPa OSO 5.2mph /  8.4km/h 13mph /  20.9km/h 83.3% 0in /  0.0mm
04:19 52.3 °F /  11.3 °C 46.9 °F /  8.3 °C 29.7in /  1004.2hPa Oeste 5.4mph /  8.7km/h 17.8mph /  28.6km/h 81.4% 0in /  0.0mm
04:24 53.1 °F /  11.7 °C 46.6 °F /  8.1 °C 29.7in /  1004.2hPa Oeste 7.8mph /  12.5km/h 24.2mph /  38.9km/h 79.1% 0in /  0.0mm
04:29 53.2 °F /  11.8 °C 46.6 °F /  8.1 °C 29.7in /  1004.1hPa Oeste 8.7mph /  14km/h 24mph /  38.6km/h 77.7% 0in /  0.0mm
04:34 53.4 °F /  11.9 °C 46.4 °F /  8 °C 29.7in /  1004.1hPa Oeste 10.5mph /  16.9km/h 20.8mph /  33.5km/h 77% 0in /  0.0mm
04:39 53.4 °F /  11.9 °C 46.2 °F /  7.9 °C 29.7in /  1004.1hPa Oeste 11.2mph /  18km/h 26.8mph /  43.1km/h 76.4% 0in /  0.0mm
04:44 53.8 °F /  12.1 °C 46.4 °F /  8 °C 29.7in /  1004.0hPa ONO 12.9mph /  20.7km/h 27mph /  43.5km/h 76% 0in /  0.0mm
04:49 53.8 °F /  12.1 °C 46.2 °F /  7.9 °C 29.7in /  1004.0hPa Oeste 13.5mph /  21.7km/h 23mph /  37km/h 75.3% 0in /  0.0mm
04:54 54 °F /  12.2 °C 46.2 °F /  7.9 °C 29.7in /  1004.0hPa Oeste 13.2mph /  21.2km/h 25.3mph /  40.7km/h 75% 0.02in /  0.5mm
04:59 54 °F /  12.2 °C 46 °F /  7.8 °C 29.6in /  1003.7hPa ONO 13mph /  20.9km/h 29.9mph /  48.1km/h 74.4% 0.02in /  0.5mm
05:04 54.1 °F /  12.3 °C 46 °F /  7.8 °C 29.6in /  1003.7hPa ONO 15.2mph /  24.5km/h 30mph /  48.3km/h 74% 0.02in /  0.5mm
05:09 54 °F /  12.2 °C 45.9 °F /  7.7 °C 29.6in /  1003.7hPa ONO 15.9mph /  25.6km/h 24.2mph /  38.9km/h 74% 0.02in /  0.5mm
05:14 54.1 °F /  12.3 °C 46 °F /  7.8 °C 29.6in /  1003.7hPa ONO 15mph /  24.2km/h 24mph /  38.6km/h 74% 0.02in /  0.5mm
05:19 54.1 °F /  12.3 °C 46 °F /  7.8 °C 29.6in /  1003.7hPa ONO 14.7mph /  23.7km/h 29.1mph /  46.8km/h 74% 0.02in /  0.5mm
05:24 54.1 °F /  12.3 °C 46 °F /  7.8 °C 29.6in /  1003.7hPa ONO 14.7mph /  23.7km/h 29mph /  46.7km/h 74% 0.02in /  0.5mm
05:29 54.1 °F /  12.3 °C 46 °F /  7.8 °C 29.6in /  1003.6hPa Oeste 14.7mph /  23.7km/h 27mph /  43.5km/h 74% 0.02in /  0.5mm
05:34 54.1 °F /  12.3 °C 46 °F /  7.8 °C 29.6in /  1003.6hPa ONO 15.6mph /  25.1km/h 25.6mph /  41.2km/h 74% 0.02in /  0.5mm
05:39 54.1 °F /  12.3 °C 46 °F /  7.8 °C 29.6in /  1003.6hPa Oeste 15.9mph /  25.6km/h 26mph /  41.8km/h 74% 0.02in /  0.5mm
05:44 54.1 °F /  12.3 °C 46 °F /  7.8 °C 29.6in /  1003.4hPa Oeste 14.3mph /  23km/h 22mph /  35.4km/h 74% 0.02in /  0.5mm
05:49 54.1 °F /  12.3 °C 46 °F /  7.8 °C 29.6in /  1003.4hPa ONO 13.7mph /  22.1km/h 29.1mph /  46.8km/h 74% 0.02in /  0.5mm
05:54 54.1 °F /  12.3 °C 46 °F /  7.8 °C 29.6in /  1003.4hPa Oeste 14.3mph /  23km/h 29mph /  46.7km/h 74% 0.02in /  0.5mm
05:59 54.1 °F /  12.3 °C 46.2 °F /  7.9 °C 29.6in /  1003.2hPa ONO 14.5mph /  23.3km/h 27mph /  43.5km/h 74.3% 0in /  0.0mm
06:04 54 °F /  12.2 °C 46.4 °F /  8 °C 29.6in /  1003.2hPa ONO 13.4mph /  21.5km/h 25mph /  40.2km/h 75.6% 0.01in /  0.3mm
06:09 53.6 °F /  12 °C 46.6 °F /  8.1 °C 29.6in /  1003.2hPa ONO 13mph /  20.9km/h 24mph /  38.6km/h 77.1% 0.02in /  0.5mm
06:14 53.2 °F /  11.8 °C 46.6 °F /  8.1 °C 29.6in /  1003.2hPa ONO 12.5mph /  20.1km/h 21mph /  33.8km/h 78% 0.02in /  0.5mm
06:19 53.2 °F /  11.8 °C 46.6 °F /  8.1 °C 29.6in /  1003.2hPa Oeste 12.3mph /  19.8km/h 19.7mph /  31.7km/h 78.4% 0.02in /  0.5mm
06:24 53.1 °F /  11.7 °C 46.6 °F /  8.1 °C 29.6in /  1003.2hPa ONO 12.3mph /  19.8km/h 21.3mph /  34.3km/h 78.1% 0.03in /  0.8mm
06:29 53.1 °F /  11.7 °C 46.8 °F /  8.2 °C 29.6in /  1003.1hPa ONO 12.3mph /  19.8km/h 21.9mph /  35.2km/h 78.9% 0.03in /  0.8mm
06:34 53.1 °F /  11.7 °C 46.8 °F /  8.2 °C 29.6in /  1003.1hPa ONO 13.2mph /  21.2km/h 22mph /  35.4km/h 79% 0.03in /  0.8mm
06:39 53.1 °F /  11.7 °C 46.6 °F /  8.1 °C 29.6in /  1003.2hPa ONO 13.5mph /  21.7km/h 25.3mph /  40.7km/h 78.6% 0.04in /  1.0mm
06:44 53.2 °F /  11.8 °C 46.6 °F /  8.1 °C 29.6in /  1003.2hPa Oeste 13.7mph /  22km/h 25mph /  40.2km/h 78% 0.04in /  1.0mm
06:49 53.2 °F /  11.8 °C 46.6 °F /  8.1 °C 29.6in /  1003.2hPa ONO 13.7mph /  22.1km/h 26.5mph /  42.6km/h 78% 0.04in /  1.0mm
06:54 53.4 °F /  11.9 °C 46.4 °F /  8 °C 29.6in /  1003.2hPa ONO 13.9mph /  22.4km/h 26mph /  41.8km/h 77.3% 0.05in /  1.3mm
06:59 53.6 °F /  12 °C 46.6 °F /  8.1 °C 29.6in /  1003.1hPa ONO 14mph /  22.5km/h 24.2mph /  38.9km/h 77% 0.05in /  1.3mm
07:04 53.8 °F /  12.1 °C 46.8 °F /  8.2 °C 29.6in /  1003.1hPa ONO 14mph /  22.5km/h 25.3mph /  40.7km/h 77% 0.05in /  1.3mm
07:09 53.8 °F /  12.1 °C 46.6 °F /  8.1 °C 29.6in /  1003.1hPa ONO 14mph /  22.5km/h 25mph /  40.2km/h 76.8% 0.04in /  1.0mm
07:14 54 °F /  12.2 °C 46.4 °F /  8 °C 29.6in /  1003.0hPa ONO 14.5mph /  23.4km/h 29.9mph /  48.1km/h 75.8% 0.03in /  0.8mm
07:19 54.1 °F /  12.3 °C 46.4 °F /  8 °C 29.6in /  1003.0hPa ONO 14.7mph /  23.7km/h 30mph /  48.3km/h 75% 0.03in /  0.8mm
07:24 54.1 °F /  12.3 °C 46.6 °F /  8.1 °C 29.6in /  1003.0hPa ONO 14.7mph /  23.7km/h 24.2mph /  38.9km/h 75.8% 0.03in /  0.8mm
07:29 54.1 °F /  12.3 °C 46.4 °F /  8 °C 29.6in /  1003.0hPa ONO 14.7mph /  23.7km/h 24mph /  38.6km/h 75.1% 0.02in /  0.5mm
07:34 54.3 °F /  12.4 °C 46.4 °F /  8 °C 29.6in /  1003.0hPa ONO 14.2mph /  22.8km/h 24.2mph /  38.9km/h 74.5% 0.02in /  0.5mm
07:39 54.3 °F /  12.4 °C 46.2 °F /  7.9 °C 29.6in /  1003.0hPa ONO 14mph /  22.5km/h 24mph /  38.6km/h 74% 0.01in /  0.3mm
07:44 54.7 °F /  12.6 °C 46.4 °F /  8 °C 29.6in /  1003.0hPa ONO 14mph /  22.5km/h 22.3mph /  35.9km/h 73.7% 0.01in /  0.3mm
07:49 54.7 °F /  12.6 °C 46.2 °F /  7.9 °C 29.6in /  1003.0hPa ONO 14mph /  22.5km/h 22mph /  35.4km/h 73% 0.01in /  0.3mm
07:54 54.7 °F /  12.6 °C 46.2 °F /  7.9 °C 29.6in /  1003.0hPa ONO 13.6mph /  21.9km/h 20.8mph /  33.5km/h 73% 0in /  0.0mm
07:59 54.7 °F /  12.6 °C 46.2 °F /  7.9 °C 29.6in /  1002.9hPa Oeste 13.5mph /  21.7km/h 21.5mph /  34.6km/h 73% 0in /  0.0mm
08:04 54.7 °F /  12.6 °C 46.2 °F /  7.9 °C 29.6in /  1002.9hPa ONO 11.9mph /  19.2km/h 22mph /  35.4km/h 73% 0in /  0.0mm
08:09 54.9 °F /  12.7 °C 46 °F /  7.8 °C 29.6in /  1002.9hPa ONO 11.4mph /  18.4km/h 24.2mph /  38.9km/h 72.1% 0in /  0.0mm
08:14 54.9 °F /  12.7 °C 46 °F /  7.8 °C 29.6in /  1002.9hPa Oeste 12.2mph /  19.6km/h 24mph /  38.6km/h 72% 0in /  0.0mm
08:19 54.9 °F /  12.7 °C 46 °F /  7.8 °C 29.6in /  1002.9hPa Oeste 12.5mph /  20.1km/h 21mph /  33.8km/h 72% 0in /  0.0mm
08:24 55 °F /  12.8 °C 45.9 °F /  7.7 °C 29.6in /  1002.9hPa Oeste 12.9mph /  20.7km/h 23mph /  37km/h 71.3% 0in /  0.0mm
08:29 55 °F /  12.8 °C 45.9 °F /  7.7 °C 29.6in /  1002.9hPa ONO 13mph /  20.9km/h 23mph /  37km/h 71% 0in /  0.0mm
08:34 55 °F /  12.8 °C 45.9 °F /  7.7 °C 29.6in /  1002.9hPa ONO 12.5mph /  20.1km/h 20.7mph /  33.3km/h 71% 0in /  0.0mm
08:39 55 °F /  12.8 °C 45.9 °F /  7.7 °C 29.6in /  1003.1hPa ONO 12.3mph /  19.8km/h 21mph /  33.8km/h 71% 0in /  0.0mm
08:44 55.2 °F /  12.9 °C 45.7 °F /  7.6 °C 29.6in /  1003.1hPa ONO 11.5mph /  18.5km/h 21mph /  33.8km/h 70.2% 0in /  0.0mm
08:49 55.2 °F /  12.9 °C 45.7 °F /  7.6 °C 29.6in /  1003.1hPa ONO 11.2mph /  18km/h 20.1mph /  32.3km/h 70% 0in /  0.0mm
08:54 55.4 °F /  13 °C 45.7 °F /  7.6 °C 29.6in /  1003.2hPa ONO 12mph /  19.3km/h 26.5mph /  42.6km/h 69.8% 0in /  0.0mm
08:59 55.6 °F /  13.1 °C 45.7 °F /  7.6 °C 29.6in /  1003.2hPa ONO 12.3mph /  19.8km/h 26mph /  41.8km/h 69% 0in /  0.0mm
09:04 55.8 °F /  13.2 °C 45.7 °F /  7.6 °C 29.6in /  1003.2hPa ONO 13.2mph /  21.3km/h 25.3mph /  40.7km/h 69% 0in /  0.0mm
09:09 55.8 °F /  13.2 °C 45.7 °F /  7.6 °C 29.6in /  1003.4hPa ONO 13.5mph /  21.7km/h 20mph /  32.2km/h 69% 0in /  0.0mm
09:14 55.8 °F /  13.2 °C 45.7 °F /  7.6 °C 29.6in /  1003.4hPa Oeste 11.4mph /  18.4km/h 21.9mph /  35.2km/h 69% 0in /  0.0mm
09:19 55.9 °F /  13.3 °C 45.5 °F /  7.5 °C 29.6in /  1003.4hPa Oeste 10.7mph /  17.2km/h 25mph /  40.2km/h 68% 0in /  0.0mm
09:24 55.9 °F /  13.3 °C 45.7 °F /  7.6 °C 29.6in /  1003.5hPa Oeste 11.2mph /  18km/h 25mph /  40.2km/h 68.5% 0in /  0.0mm
09:29 55.8 °F /  13.2 °C 45.7 °F /  7.6 °C 29.6in /  1003.5hPa ONO 11.4mph /  18.4km/h 22.3mph /  35.9km/h 68.6% 0in /  0.0mm
09:34 55.8 °F /  13.2 °C 45.7 °F /  7.6 °C 29.6in /  1003.5hPa ONO 11.4mph /  18.4km/h 22mph /  35.4km/h 69.1% 0in /  0.0mm
09:39 55.8 °F /  13.2 °C 46 °F /  7.8 °C 29.6in /  1003.6hPa ONO 11.4mph /  18.4km/h 17mph /  27.4km/h 70% 0in /  0.0mm
09:44 55.8 °F /  13.2 °C 45.9 °F /  7.7 °C 29.6in /  1003.6hPa ONO 8.9mph /  14.4km/h 21.9mph /  35.2km/h 69.4% 0in /  0.0mm
09:49 55.9 °F /  13.3 °C 45.7 °F /  7.6 °C 29.6in /  1003.6hPa Oeste 8.1mph /  13km/h 22mph /  35.4km/h 68.3% 0in /  0.0mm
09:54 55.9 °F /  13.3 °C 45.3 °F /  7.4 °C 29.6in /  1003.9hPa ONO 11.3mph /  18.2km/h 24.2mph /  38.9km/h 67.5% 0in /  0.0mm
09:59 56.1 °F /  13.4 °C 45.7 °F /  7.6 °C 29.6in /  1003.9hPa Oeste 12.5mph /  20.1km/h 24mph /  38.6km/h 68% 0in /  0.0mm
10:04 55.9 °F /  13.3 °C 45.5 °F /  7.5 °C 29.6in /  1003.9hPa Oeste 11.1mph /  17.9km/h 19mph /  30.6km/h 68.1% 0in /  0.0mm
10:09 55.8 °F /  13.2 °C 45.7 °F /  7.6 °C 29.7in /  1004.2hPa Oeste 10.7mph /  17.2km/h 19mph /  30.6km/h 68.8% 0in /  0.0mm
10:14 55.8 °F /  13.2 °C 45.7 °F /  7.6 °C 29.7in /  1004.2hPa ONO 10.7mph /  17.2km/h 19.7mph /  31.7km/h 68.7% 0in /  0.0mm
10:19 55.8 °F /  13.2 °C 45.7 °F /  7.6 °C 29.7in /  1004.2hPa ONO 10.7mph /  17.2km/h 20mph /  32.2km/h 68.8% 0in /  0.0mm
10:24 55.8 °F /  13.2 °C 45.7 °F /  7.6 °C 29.7in /  1004.4hPa ONO 11.1mph /  17.8km/h 19.7mph /  31.7km/h 69% 0in /  0.0mm
10:29 55.8 °F /  13.2 °C 45.7 °F /  7.6 °C 29.7in /  1004.4hPa ONO 11.2mph /  18km/h 20mph /  32.2km/h 69% 0in /  0.0mm
10:34 55.8 °F /  13.2 °C 45.7 °F /  7.6 °C 29.7in /  1004.4hPa Oeste 10.9mph /  17.5km/h 17.5mph /  28.2km/h 69% 0in /  0.0mm
10:39 55.8 °F /  13.2 °C 45.9 °F /  7.7 °C 29.7in /  1004.6hPa ONO 10.7mph /  17.2km/h 18.5mph /  29.8km/h 69.3% 0in /  0.0mm
10:44 55.6 °F /  13.1 °C 45.9 °F /  7.7 °C 29.7in /  1004.6hPa ONO 10.2mph /  16.4km/h 19mph /  30.6km/h 69.7% 0in /  0.0mm
10:49 55.6 °F /  13.1 °C 45.9 °F /  7.7 °C 29.7in /  1004.6hPa ONO 10mph /  16.1km/h 18mph /  29km/h 70% 0in /  0.0mm
10:54 55.4 °F /  13 °C 46 °F /  7.8 °C 29.7in /  1004.7hPa ONO 10mph /  16.1km/h 19.6mph /  31.5km/h 70.3% 0in /  0.0mm
10:59 55.2 °F /  12.9 °C 46 °F /  7.8 °C 29.7in /  1004.7hPa ONO 10mph /  16.1km/h 20mph /  32.2km/h 71.2% 0in /  0.0mm
11:04 55 °F /  12.8 °C 46.4 °F /  8 °C 29.7in /  1004.7hPa ONO 10.9mph /  17.6km/h 20mph /  32.2km/h 72.5% 0in /  0.0mm
11:09 54.9 °F /  12.7 °C 46.6 °F /  8.1 °C 29.7in /  1004.8hPa ONO 11.2mph /  18km/h 20mph /  32.2km/h 73.5% 0in /  0.0mm
11:14 54.9 °F /  12.7 °C 46.8 °F /  8.2 °C 29.7in /  1004.8hPa ONO 10.5mph /  16.9km/h 16.3mph /  26.2km/h 74.2% 0in /  0.0mm
11:19 54.7 °F /  12.6 °C 46.9 °F /  8.3 °C 29.7in /  1004.8hPa Oeste 10.2mph /  16.4km/h 17.3mph /  27.8km/h 75% 0in /  0.0mm
11:24 54.7 °F /  12.6 °C 46.9 °F /  8.3 °C 29.7in /  1004.8hPa ONO 10.6mph /  17km/h 21.9mph /  35.2km/h 75% 0in /  0.0mm
11:29 54.7 °F /  12.6 °C 46.9 °F /  8.3 °C 29.7in /  1004.8hPa Oeste 10.7mph /  17.2km/h 22mph /  35.4km/h 75% 0in /  0.0mm
11:34 54.7 °F /  12.6 °C 46.9 °F /  8.3 °C 29.7in /  1004.8hPa Oeste 12mph /  19.3km/h 23mph /  37km/h 75.2% 0in /  0.0mm
11:39 54.7 °F /  12.6 °C 47.3 °F /  8.5 °C 29.7in /  1004.8hPa ONO 12.5mph /  20.1km/h 23.5mph /  37.8km/h 76% 0in /  0.0mm
11:44 54.7 °F /  12.6 °C 47.5 °F /  8.6 °C 29.7in /  1004.8hPa ONO 13.2mph /  21.3km/h 23mph /  37km/h 76.7% 0in /  0.0mm
11:49 54.3 °F /  12.4 °C 47.5 °F /  8.6 °C 29.7in /  1004.8hPa ONO 13.5mph /  21.7km/h 20mph /  32.2km/h 77.7% 0.01in /  0.3mm
11:54 54.1 °F /  12.3 °C 47.8 °F /  8.8 °C 29.7in /  1005.0hPa Oeste 10.9mph /  17.6km/h 20mph /  32.2km/h 78.9% 0.01in /  0.3mm
11:59 54 °F /  12.2 °C 47.7 °F /  8.7 °C 29.7in /  1005.0hPa ONO 10mph /  16.1km/h 19mph /  30.6km/h 79.2% 0.01in /  0.3mm
12:04 54 °F /  12.2 °C 47.8 °F /  8.8 °C 29.7in /  1005.0hPa ONO 10.9mph /  17.6km/h 19.2mph /  30.9km/h 79.5% 0.01in /  0.3mm
12:09 54 °F /  12.2 °C 47.8 °F /  8.8 °C 29.7in /  1005.0hPa ONO 11.2mph /  18km/h 20mph /  32.2km/h 79.9% 0.01in /  0.3mm
12:14 54 °F /  12.2 °C 47.8 °F /  8.8 °C 29.7in /  1004.9hPa Oeste 10.9mph /  17.5km/h 21.3mph /  34.3km/h 80% 0.02in /  0.5mm
12:19 54 °F /  12.2 °C 47.8 °F /  8.8 °C 29.7in /  1004.9hPa Oeste 10.7mph /  17.2km/h 22.3mph /  35.9km/h 79.4% 0.02in /  0.5mm
12:24 54.1 °F /  12.3 °C 48 °F /  8.9 °C 29.7in /  1004.9hPa Oeste 12.4mph /  19.9km/h 22mph /  35.4km/h 79.4% 0.02in /  0.5mm
12:29 54.1 °F /  12.3 °C 47.8 °F /  8.8 °C 29.7in /  1004.7hPa Oeste 13mph /  20.9km/h 19.6mph /  31.5km/h 79.1% 0.02in /  0.5mm
12:34 54.3 °F /  12.4 °C 47.8 °F /  8.8 °C 29.7in /  1004.7hPa Oeste 11.8mph /  19km/h 20mph /  32.2km/h 79% 0.02in /  0.5mm
12:39 54.3 °F /  12.4 °C 47.8 °F /  8.8 °C 29.7in /  1004.7hPa Oeste 11.4mph /  18.4km/h 16mph /  25.7km/h 79% 0.02in /  0.5mm
12:44 54.3 °F /  12.4 °C 47.8 °F /  8.8 °C 29.7in /  1004.6hPa Oeste 8.7mph /  14km/h 17.3mph /  27.8km/h 78.6% 0.02in /  0.5mm
12:49 54.7 °F /  12.6 °C 47.8 °F /  8.8 °C 29.7in /  1004.6hPa Oeste 7.6mph /  12.2km/h 20.8mph /  33.5km/h 77.6% 0.01in /  0.2mm
12:54 54.9 °F /  12.7 °C 47.7 °F /  8.7 °C 29.7in /  1004.6hPa Oeste 9.3mph /  15km/h 21mph /  33.8km/h 76.6% 0.01in /  0.2mm
12:59 55 °F /  12.8 °C 47.7 °F /  8.7 °C 29.7in /  1004.4hPa Oeste 10mph /  16.1km/h 18.5mph /  29.8km/h 75.7% 0.01in /  0.2mm
13:04 55.2 °F /  12.9 °C 47.3 °F /  8.5 °C 29.7in /  1004.4hPa Oeste 10mph /  16.1km/h 19mph /  30.6km/h 74.7% 0.01in /  0.2mm
13:09 55.4 °F /  13 °C 47.7 °F /  8.7 °C 29.7in /  1004.5hPa Oeste 10mph /  16.1km/h 18mph /  29km/h 75% 0.01in /  0.2mm
13:14 55.4 °F /  13 °C 47.8 °F /  8.8 °C 29.7in /  1004.5hPa Oeste 8.1mph /  13km/h 12mph /  19.3km/h 75.6% 0in /  0.0mm
13:19 55.4 °F /  13 °C 47.8 °F /  8.8 °C 29.7in /  1004.5hPa Oeste 7.4mph /  11.9km/h 11mph /  17.7km/h 75.8% 0in /  0.0mm
13:24 55.6 °F /  13.1 °C 48 °F /  8.9 °C 29.7in /  1004.5hPa Oeste 6.3mph /  10.1km/h 10mph /  16.1km/h 76% 0in /  0.0mm
13:29 55.6 °F /  13.1 °C 48 °F /  8.9 °C 29.7in /  1004.5hPa Oeste 5.9mph /  9.5km/h 14mph /  22.5km/h 75.5% 0in /  0.0mm
13:34 55.6 °F /  13.1 °C 47.5 °F /  8.6 °C 29.7in /  1004.5hPa Oeste 6.3mph /  10.1km/h 14mph /  22.5km/h 74.3% 0in /  0.0mm
13:39 55.6 °F /  13.1 °C 47.5 °F /  8.6 °C 29.7in /  1004.5hPa Oeste 6.4mph /  10.3km/h 15.9mph /  25.6km/h 74% 0in /  0.0mm
13:44 55.6 °F /  13.1 °C 47.5 °F /  8.6 °C 29.7in /  1004.5hPa ONO 7.6mph /  12.3km/h 16.1mph /  25.9km/h 74% 0in /  0.0mm
13:49 55.6 °F /  13.1 °C 47.7 °F /  8.7 °C 29.7in /  1004.5hPa ONO 8.1mph /  13km/h 16mph /  25.7km/h 74.7% 0in /  0.0mm
13:54 55.2 °F /  12.9 °C 47.7 °F /  8.7 °C 29.7in /  1004.7hPa ONO 8.1mph /  13km/h 16.3mph /  26.2km/h 75.5% 0in /  0.0mm
13:59 55 °F /  12.8 °C 47.8 °F /  8.8 °C 29.7in /  1004.7hPa Oeste 8.1mph /  13km/h 16mph /  25.7km/h 76.5% 0.02in /  0.6mm
14:04 54.9 °F /  12.7 °C 47.8 °F /  8.8 °C 29.7in /  1004.7hPa Oeste 8.1mph /  13km/h 14mph /  22.5km/h 77.1% 0.02in /  0.6mm
14:09 54.9 °F /  12.7 °C 48 °F /  8.9 °C 29.7in /  1004.7hPa Oeste 8.1mph /  13km/h 12mph /  19.3km/h 78% 0.02in /  0.6mm
14:14 54.9 °F /  12.7 °C 48.2 °F /  9 °C 29.7in /  1004.6hPa Oeste 7.2mph /  11.6km/h 12mph /  19.3km/h 78% 0.02in /  0.6mm
14:19 55 °F /  12.8 °C 48.2 °F /  9 °C 29.7in /  1004.6hPa Oeste 6.9mph /  11.1km/h 12mph /  19.3km/h 77.9% 0.02in /  0.6mm
14:24 55 °F /  12.8 °C 48.2 °F /  9 °C 29.7in /  1004.6hPa Oeste 6.4mph /  10.3km/h 12.7mph /  20.4km/h 77.5% 0.02in /  0.6mm
14:29 55.2 °F /  12.9 °C 48 °F /  8.9 °C 29.7in /  1004.4hPa Oeste 6.2mph /  10km/h 13mph /  20.9km/h 77% 0.02in /  0.6mm
14:34 55.4 °F /  13 °C 48.4 °F /  9.1 °C 29.7in /  1004.4hPa ONO 6.3mph /  10.2km/h 12mph /  19.3km/h 77% 0.02in /  0.6mm
14:39 55.6 °F /  13.1 °C 48.2 °F /  9 °C 29.7in /  1004.4hPa ONO 6.4mph /  10.3km/h 18.4mph /  29.6km/h 76.4% 0.02in /  0.6mm
14:44 55.6 °F /  13.1 °C 48 °F /  8.9 °C 29.7in /  1004.4hPa Oeste 7.3mph /  11.7km/h 18mph /  29km/h 76% 0.02in /  0.6mm
14:49 55.6 °F /  13.1 °C 48 °F /  8.9 °C 29.7in /  1004.4hPa Oeste 7.6mph /  12.2km/h 14mph /  22.5km/h 76% 0.02in /  0.6mm
14:54 55.6 °F /  13.1 °C 48 °F /  8.9 °C 29.7in /  1004.4hPa Oeste 7.5mph /  12km/h 17.3mph /  27.8km/h 76% 0.02in /  0.6mm
14:59 55.6 °F /  13.1 °C 48 °F /  8.9 °C 29.7in /  1004.4hPa Oeste 7.4mph /  11.9km/h 17mph /  27.4km/h 76% 0.02in /  0.6mm
15:04 55.6 °F /  13.1 °C 48 °F /  8.9 °C 29.7in /  1004.4hPa Oeste 8.3mph /  13.3km/h 15mph /  24.1km/h 76% 0in /  0.0mm
15:09 55.6 °F /  13.1 °C 48.4 °F /  9.1 °C 29.7in /  1004.5hPa Oeste 8.5mph /  13.7km/h 14mph /  22.5km/h 76.7% 0in /  0.0mm
15:14 55.6 °F /  13.1 °C 48.4 °F /  9.1 °C 29.7in /  1004.5hPa Oeste 7.3mph /  11.8km/h 13.8mph /  22.2km/h 76.5% 0in /  0.0mm
15:19 55.6 °F /  13.1 °C 48.2 °F /  9 °C 29.7in /  1004.5hPa Oeste 6.9mph /  11.1km/h 14mph /  22.5km/h 76.3% 0in /  0.0mm
15:24 55.6 °F /  13.1 °C 48.4 °F /  9.1 °C 29.7in /  1004.5hPa Oeste 6.4mph /  10.3km/h 12.7mph /  20.4km/h 76.5% 0in /  0.0mm
15:29 55.8 °F /  13.2 °C 48.2 °F /  9 °C 29.7in /  1004.5hPa Oeste 6.2mph /  10km/h 13mph /  20.9km/h 76% 0in /  0.0mm
15:34 55.8 °F /  13.2 °C 48.4 °F /  9.1 °C 29.7in /  1004.5hPa Oeste 6.2mph /  10km/h 13mph /  20.9km/h 76% 0in /  0.0mm
15:39 55.9 °F /  13.3 °C 48.2 °F /  9 °C 29.7in /  1004.6hPa Oeste 6.2mph /  10km/h 13mph /  20.9km/h 75.4% 0in /  0.0mm
15:44 55.9 °F /  13.3 °C 48.2 °F /  9 °C 29.7in /  1004.6hPa Oeste 7.2mph /  11.6km/h 13mph /  20.9km/h 75% 0in /  0.0mm
15:49 56.1 °F /  13.4 °C 48.4 °F /  9.1 °C 29.7in /  1004.6hPa Oeste 7.6mph /  12.2km/h 12mph /  19.3km/h 75% 0in /  0.0mm
15:54 56.1 °F /  13.4 °C 48.2 °F /  9 °C 29.7in /  1004.8hPa Oeste 6.6mph /  10.6km/h 12mph /  19.3km/h 74.4% 0in /  0.0mm
15:59 56.3 °F /  13.5 °C 48 °F /  8.9 °C 29.7in /  1004.8hPa ONO 6.2mph /  10km/h 12mph /  19.3km/h 74% 0in /  0.0mm
16:04 56.3 °F /  13.5 °C 48.2 °F /  9 °C 29.7in /  1004.8hPa Oeste 6.3mph /  10.2km/h 12mph /  19.3km/h 74.2% 0in /  0.0mm
16:09 56.5 °F /  13.6 °C 48.4 °F /  9.1 °C 29.7in /  1005.0hPa Oeste 6.4mph /  10.3km/h 11.8mph /  19km/h 74.1% 0in /  0.0mm
16:14 56.5 °F /  13.6 °C 48.2 °F /  9 °C 29.7in /  1005.0hPa Oeste 6mph /  9.7km/h 12.3mph /  19.8km/h 73.7% 0in /  0.0mm
16:19 56.5 °F /  13.6 °C 48 °F /  8.9 °C 29.7in /  1005.0hPa Oeste 5.9mph /  9.5km/h 13mph /  20.9km/h 73% 0in /  0.0mm
16:24 56.7 °F /  13.7 °C 48 °F /  8.9 °C 29.7in /  1005.0hPa OSO 6.3mph /  10.1km/h 13mph /  20.9km/h 73% 0in /  0.0mm
16:29 56.7 °F /  13.7 °C 48 °F /  8.9 °C 29.7in /  1005.0hPa OSO 6.4mph /  10.3km/h 10mph /  16.1km/h 73% 0in /  0.0mm
16:34 56.7 °F /  13.7 °C 48.2 °F /  9 °C 29.7in /  1005.0hPa Oeste 4.7mph /  7.5km/h 8.7mph /  14km/h 73.2% 0in /  0.0mm
16:39 56.7 °F /  13.7 °C 47.8 °F /  8.8 °C 29.7in /  1005.2hPa OSO 4mph /  6.5km/h 9.2mph /  14.8km/h 72.1% 0in /  0.0mm
16:44 56.8 °F /  13.8 °C 47.8 °F /  8.8 °C 29.7in /  1005.2hPa OSO 4mph /  6.5km/h 9mph /  14.5km/h 72% 0in /  0.0mm
16:49 56.7 °F /  13.7 °C 47.7 °F /  8.7 °C 29.7in /  1005.2hPa OSO 4mph /  6.5km/h 7mph /  11.3km/h 72% 0in /  0.0mm
16:54 56.7 °F /  13.7 °C 47.5 °F /  8.6 °C 29.7in /  1005.2hPa OSO 4.2mph /  6.8km/h 9.7mph /  15.6km/h 71.2% 0in /  0.0mm
16:59 56.8 °F /  13.8 °C 47.1 °F /  8.4 °C 29.7in /  1005.2hPa OSO 4.3mph /  6.9km/h 10mph /  16.1km/h 70.1% 0in /  0.0mm
17:04 56.7 °F /  13.7 °C 46.8 °F /  8.2 °C 29.7in /  1005.2hPa OSO 5.2mph /  8.3km/h 11.5mph /  18.5km/h 69.2% 0in /  0.0mm
17:09 56.7 °F /  13.7 °C 46.6 °F /  8.1 °C 29.7in /  1005.3hPa OSO 5.4mph /  8.7km/h 12mph /  19.3km/h 69.2% 0in /  0.0mm
17:14 56.7 °F /  13.7 °C 46.8 °F /  8.2 °C 29.7in /  1005.3hPa Oeste 5.4mph /  8.7km/h 11mph /  17.7km/h 69.6% 0in /  0.0mm
17:19 56.5 °F /  13.6 °C 46.8 °F /  8.2 °C 29.7in /  1005.3hPa OSO 5.4mph /  8.7km/h 8.1mph /  13km/h 70% 0in /  0.0mm
17:24 56.3 °F /  13.5 °C 46.4 °F /  8 °C 29.7in /  1005.5hPa OSO 4.9mph /  7.9km/h 10.4mph /  16.7km/h 69.6% 0in /  0.0mm
17:29 56.1 °F /  13.4 °C 46 °F /  7.8 °C 29.7in /  1005.5hPa Oeste 4.7mph /  7.6km/h 10.4mph /  16.7km/h 69% 0in /  0.0mm
17:34 56.1 °F /  13.4 °C 46.2 °F /  7.9 °C 29.7in /  1005.5hPa Oeste 5.2mph /  8.4km/h 9mph /  14.5km/h 69% 0in /  0.0mm
17:39 56.1 °F /  13.4 °C 46 °F /  7.8 °C 29.7in /  1005.7hPa ONO 5.4mph /  8.7km/h 8.1mph /  13km/h 69% 0in /  0.0mm
17:44 56.1 °F /  13.4 °C 46.2 °F /  7.9 °C 29.7in /  1005.7hPa Oeste 4.4mph /  7.1km/h 8mph /  12.9km/h 69.4% 0in /  0.0mm
17:49 56.1 °F /  13.4 °C 46.6 °F /  8.1 °C 29.7in /  1005.7hPa Oeste 4mph /  6.5km/h 5mph /  8km/h 70% 0in /  0.0mm
17:54 56.1 °F /  13.4 °C 46.8 °F /  8.2 °C 29.7in /  1005.7hPa Oeste 2.5mph /  4.1km/h 5mph /  8km/h 70.8% 0in /  0.0mm
17:59 55.9 °F /  13.3 °C 46.8 °F /  8.2 °C 29.7in /  1005.6hPa Oeste 2mph /  3.2km/h 3mph /  4.8km/h 71% 0in /  0.0mm
18:04 55.8 °F /  13.2 °C 46.6 °F /  8.1 °C 29.7in /  1005.6hPa Oeste 0.5mph /  0.8km/h   71% 0in /  0.0mm
18:09 55.8 °F /  13.2 °C 46.6 °F /  8.1 °C 29.7in /  1005.8hPa Calm   4mph /  6.4km/h 71% 0in /  0.0mm
18:14 55.8 °F /  13.2 °C 46.6 °F /  8.1 °C 29.7in /  1005.8hPa OSO 1.1mph /  1.7km/h 5mph /  8km/h 71% 0in /  0.0mm
18:19 55.8 °F /  13.2 °C 46.6 °F /  8.1 °C 29.7in /  1005.8hPa SO 1.4mph /  2.2km/h 5mph /  8km/h 71% 0in /  0.0mm
18:24 55.8 °F /  13.2 °C 46.6 °F /  8.1 °C 29.7in /  1005.8hPa SSO 2.5mph /  4km/h 5.9mph /  9.5km/h 71% 0in /  0.0mm
18:29 55.8 °F /  13.2 °C 46.9 °F /  8.3 °C 29.7in /  1005.8hPa Sur 2.9mph /  4.7km/h 6.9mph /  11.1km/h 71.9% 0in /  0.0mm
18:34 55.8 °F /  13.2 °C 46.9 °F /  8.3 °C 29.7in /  1005.8hPa SSO 3.7mph /  5.9km/h 7mph /  11.3km/h 72% 0in /  0.0mm
18:39 55.8 °F /  13.2 °C 47.1 °F /  8.4 °C 29.7in /  1006.0hPa Sur 4mph /  6.5km/h 7.4mph /  11.9km/h 72.6% 0in /  0.0mm
18:44 55.6 °F /  13.1 °C 47.7 °F /  8.7 °C 29.7in /  1006.0hPa SSO 4.5mph /  7.3km/h 7.6mph /  12.2km/h 74.6% 0in /  0.0mm
18:49 55.2 °F /  12.9 °C 47.7 °F /  8.7 °C 29.7in /  1006.0hPa SSO 4.7mph /  7.6km/h 8.1mph /  13km/h 75.6% 0in /  0.0mm
18:54 55.2 °F /  12.9 °C 47.8 °F /  8.8 °C 29.7in /  1006.0hPa SSO 5.1mph /  8.2km/h 8.5mph /  13.7km/h 76% 0in /  0.0mm
18:59 55.2 °F /  12.9 °C 47.8 °F /  8.8 °C 29.7in /  1006.0hPa SO 5.2mph /  8.4km/h 9.2mph /  14.8km/h 76% 0in /  0.0mm
19:04 55.2 °F /  12.9 °C 47.8 °F /  8.8 °C 29.7in /  1006.0hPa SSO 5.3mph /  8.6km/h 9mph /  14.5km/h 76% 0in /  0.0mm
19:09 55.2 °F /  12.9 °C 47.8 °F /  8.8 °C 29.7in /  1006.1hPa SSO 5.4mph /  8.7km/h 8.1mph /  13km/h 76% 0in /  0.0mm
19:14 55.2 °F /  12.9 °C 47.8 °F /  8.8 °C 29.7in /  1006.1hPa SSO 5.3mph /  8.5km/h 8mph /  12.9km/h 76.3% 0in /  0.0mm
19:19 55 °F /  12.8 °C 48 °F /  8.9 °C 29.7in /  1006.1hPa SSO 5.2mph /  8.4km/h 7mph /  11.3km/h 77% 0in /  0.0mm
19:24 55 °F /  12.8 °C 48 °F /  8.9 °C 29.7in /  1006.2hPa SSO 4.3mph /  6.9km/h 8.1mph /  13km/h 77% 0in /  0.0mm
19:29 55 °F /  12.8 °C 48 °F /  8.9 °C 29.7in /  1006.2hPa SSO 4mph /  6.5km/h 8mph /  12.9km/h 77% 0in /  0.0mm
19:34 54.9 °F /  12.7 °C 47.8 °F /  8.8 °C 29.7in /  1006.2hPa SSO 4.5mph /  7.3km/h 7mph /  11.3km/h 77% 0in /  0.0mm
19:39 54.9 °F /  12.7 °C 47.8 °F /  8.8 °C 29.7in /  1006.4hPa SSO 4.7mph /  7.6km/h 6.2mph /  10km/h 77% 0in /  0.0mm
19:44 54.9 °F /  12.7 °C 48 °F /  8.9 °C 29.7in /  1006.4hPa Sur 4.2mph /  6.7km/h 6mph /  9.7km/h 77.5% 0in /  0.0mm
19:49 54.9 °F /  12.7 °C 48 °F /  8.9 °C 29.7in /  1006.4hPa Sur 4mph /  6.5km/h 6.9mph /  11.1km/h 78% 0in /  0.0mm
19:54 54.9 °F /  12.7 °C 48 °F /  8.9 °C 29.7in /  1006.5hPa Sur 4.2mph /  6.8km/h 8.1mph /  13km/h 78% 0in /  0.0mm
19:59 54.9 °F /  12.7 °C 48 °F /  8.9 °C 29.7in /  1006.5hPa SSO 4.3mph /  6.9km/h 8.1mph /  13km/h 78% 0in /  0.0mm
20:04 54.9 °F /  12.7 °C 47.8 °F /  8.8 °C 29.7in /  1006.5hPa SSO 4.6mph /  7.4km/h 9.2mph /  14.8km/h 77.3% 0in /  0.0mm
20:09 54.9 °F /  12.7 °C 47.8 °F /  8.8 °C 29.7in /  1006.7hPa SSO 4.7mph /  7.6km/h 9mph /  14.5km/h 77% 0in /  0.0mm
20:14 54.9 °F /  12.7 °C 47.8 °F /  8.8 °C 29.7in /  1006.7hPa Sur 5.2mph /  8.4km/h 8mph /  12.9km/h 77.4% 0in /  0.0mm
20:19 54.9 °F /  12.7 °C 48 °F /  8.9 °C 29.7in /  1006.7hPa Sur 5.4mph /  8.7km/h 7mph /  11.3km/h 77.5% 0in /  0.0mm
20:24 54.9 °F /  12.7 °C 48 °F /  8.9 °C 29.7in /  1006.7hPa SSO 4.9mph /  7.9km/h 7mph /  11.3km/h 77.4% 0in /  0.0mm
20:29 54.9 °F /  12.7 °C 47.8 °F /  8.8 °C 29.7in /  1006.7hPa Sur 4.7mph /  7.6km/h 6.9mph /  11.1km/h 77% 0in /  0.0mm
20:34 55 °F /  12.8 °C 48 °F /  8.9 °C 29.7in /  1006.7hPa Sur 3.9mph /  6.3km/h 7mph /  11.3km/h 76.9% 0in /  0.0mm
20:39 55 °F /  12.8 °C 47.7 °F /  8.7 °C 29.7in /  1007.0hPa SSO 3.6mph /  5.8km/h 6.2mph /  10km/h 76% 0in /  0.0mm
20:44 55.2 °F /  12.9 °C 47.8 °F /  8.8 °C 29.7in /  1007.0hPa SSO 3.1mph /  5km/h 6mph /  9.7km/h 76.2% 0in /  0.0mm
20:49 55 °F /  12.8 °C 48 °F /  8.9 °C 29.7in /  1007.0hPa SSO 2.9mph /  4.7km/h 5.2mph /  8.4km/h 77% 0in /  0.0mm
20:54 54.9 °F /  12.7 °C 48 °F /  8.9 °C 29.7in /  1007.2hPa Sur 3mph /  4.9km/h 5.8mph /  9.3km/h 77.4% 0in /  0.0mm
20:59 54.9 °F /  12.7 °C 48 °F /  8.9 °C 29.7in /  1007.2hPa Sur 3.1mph /  5km/h 6.2mph /  10km/h 78% 0in /  0.0mm
21:04 54.9 °F /  12.7 °C 48 °F /  8.9 °C 29.7in /  1007.2hPa Sur 3.5mph /  5.6km/h 6mph /  9.7km/h 78% 0in /  0.0mm
21:09 54.9 °F /  12.7 °C 48 °F /  8.9 °C 29.7in /  1007.3hPa SSO 3.6mph /  5.8km/h 6mph /  9.7km/h 78% 0in /  0.0mm
21:14 54.9 °F /  12.7 °C 48 °F /  8.9 °C 29.7in /  1007.3hPa SSO 3.6mph /  5.8km/h 7.4mph /  11.9km/h 78% 0in /  0.0mm
21:19 54.9 °F /  12.7 °C 48 °F /  8.9 °C 29.7in /  1007.3hPa SSO 3.6mph /  5.8km/h 7mph /  11.3km/h 78% 0in /  0.0mm
21:24 54.9 °F /  12.7 °C 48 °F /  8.9 °C 29.8in /  1007.4hPa SO 4.4mph /  7.1km/h 7.4mph /  11.9km/h 77.3% 0in /  0.0mm
21:29 55 °F /  12.8 °C 48 °F /  8.9 °C 29.8in /  1007.4hPa SO 4.7mph /  7.6km/h 7mph /  11.3km/h 77% 0in /  0.0mm
21:34 55 °F /  12.8 °C 47.7 °F /  8.7 °C 29.8in /  1007.4hPa SO 3.9mph /  6.3km/h 7mph /  11.3km/h 76% 0in /  0.0mm
21:39 55.2 °F /  12.9 °C 47.5 °F /  8.6 °C 29.8in /  1007.6hPa SSO 3.6mph /  5.8km/h 8.1mph /  13km/h 75.4% 0in /  0.0mm
21:44 55.2 °F /  12.9 °C 47.5 °F /  8.6 °C 29.8in /  1007.6hPa Sur 3.6mph /  5.8km/h 8mph /  12.9km/h 75% 0in /  0.0mm
21:49 55.2 °F /  12.9 °C 47.5 °F /  8.6 °C 29.8in /  1007.6hPa Sur 3.6mph /  5.8km/h 7.4mph /  11.9km/h 75% 0in /  0.0mm
21:54 55.2 °F /  12.9 °C 47.5 °F /  8.6 °C 29.8in /  1007.8hPa Sur 4.1mph /  6.6km/h 9.2mph /  14.8km/h 75% 0in /  0.0mm
21:59 55.2 °F /  12.9 °C 47.5 °F /  8.6 °C 29.8in /  1007.8hPa Sur 4.3mph /  6.9km/h 9.2mph /  14.8km/h 75% 0in /  0.0mm
22:04 55.2 °F /  12.9 °C 47.5 °F /  8.6 °C 29.8in /  1007.8hPa Sur 4.6mph /  7.4km/h 7mph /  11.3km/h 75% 0in /  0.0mm
22:09 55.2 °F /  12.9 °C 47.5 °F /  8.6 °C 29.8in /  1007.9hPa SO 4.7mph /  7.6km/h 7mph /  11.3km/h 75% 0in /  0.0mm
22:14 55.2 °F /  12.9 °C 47.5 °F /  8.6 °C 29.8in /  1007.9hPa SSO 4.2mph /  6.7km/h 7.4mph /  11.9km/h 75% 0in /  0.0mm
22:19 55.2 °F /  12.9 °C 47.5 °F /  8.6 °C 29.8in /  1007.9hPa SSO 4mph /  6.5km/h 8.1mph /  13km/h 75% 0in /  0.0mm
22:24 55.4 °F /  13 °C 47.5 °F /  8.6 °C 29.8in /  1007.9hPa SSO 4.5mph /  7.3km/h 8.5mph /  13.7km/h 74.9% 0in /  0.0mm
22:29 55.6 °F /  13.1 °C 47.3 °F /  8.5 °C 29.8in /  1007.9hPa SSO 4.7mph /  7.6km/h 10.7mph /  17.2km/h 74% 0in /  0.0mm
22:34 55.6 °F /  13.1 °C 47.5 °F /  8.6 °C 29.8in /  1007.9hPa SSO 5.6mph /  9km/h 11mph /  17.7km/h 74% 0in /  0.0mm
22:39 55.6 °F /  13.1 °C 47.5 °F /  8.6 °C 29.8in /  1008.0hPa SSO 5.9mph /  9.5km/h 10.4mph /  16.7km/h 74% 0in /  0.0mm
22:44 55.6 °F /  13.1 °C 47.5 °F /  8.6 °C 29.8in /  1008.0hPa SSO 6.2mph /  9.9km/h 10mph /  16.1km/h 74.1% 0in /  0.0mm
22:49 55.6 °F /  13.1 °C 47.8 °F /  8.8 °C 29.8in /  1008.0hPa SSO 6.2mph /  10km/h 9mph /  14.5km/h 75% 0in /  0.0mm
22:54 55.2 °F /  12.9 °C 47.7 °F /  8.7 °C 29.8in /  1008.0hPa SSO 5.6mph /  9km/h 8.1mph /  13km/h 75.3% 0in /  0.0mm
22:59 55.2 °F /  12.9 °C 47.8 °F /  8.8 °C 29.8in /  1008.0hPa SSO 5.4mph /  8.7km/h 8mph /  12.9km/h 76% 0in /  0.0mm
23:04 55 °F /  12.8 °C 47.8 °F /  8.8 °C 29.8in /  1008.0hPa SSO 4.8mph /  7.8km/h 6.9mph /  11.1km/h 76.4% 0in /  0.0mm
23:09 55 °F /  12.8 °C 47.8 °F /  8.8 °C 29.8in /  1008.0hPa Sur 4.7mph /  7.6km/h 7mph /  11.3km/h 76.8% 0in /  0.0mm
23:14 55 °F /  12.8 °C 48 °F /  8.9 °C 29.8in /  1008.0hPa Sur 3.9mph /  6.3km/h 6.4mph /  10.3km/h 77% 0in /  0.0mm
23:19 54.9 °F /  12.7 °C 47.8 °F /  8.8 °C 29.8in /  1008.0hPa Sur 3.6mph /  5.8km/h 7mph /  11.3km/h 77% 0in /  0.0mm
23:24 54.9 °F /  12.7 °C 47.8 °F /  8.8 °C 29.8in /  1008.1hPa SSO 4.1mph /  6.6km/h 7.4mph /  11.9km/h 77% 0in /  0.0mm
23:29 54.9 °F /  12.7 °C 47.8 °F /  8.8 °C 29.8in /  1008.1hPa SSO 4.3mph /  6.9km/h 7mph /  11.3km/h 77% 0in /  0.0mm
23:34 54.9 °F /  12.7 °C 47.8 °F /  8.8 °C 29.8in /  1008.1hPa SSO 3.8mph /  6.1km/h 6mph /  9.7km/h 77% 0in /  0.0mm
23:39 54.9 °F /  12.7 °C 47.5 °F /  8.6 °C 29.8in /  1008.2hPa SSO 3.6mph /  5.8km/h 4mph /  6.4km/h 76.2% 0in /  0.0mm
23:44 54.9 °F /  12.7 °C 47.5 °F /  8.6 °C 29.8in /  1008.2hPa SSO 0.9mph /  1.5km/h 1mph /  1.6km/h 76% 0in /  0.0mm
23:49 54.9 °F /  12.7 °C 47.5 °F /  8.6 °C 29.8in /  1008.2hPa Calm     76% 0in /  0.0mm
23:54 54.9 °F /  12.7 °C 47.7 °F /  8.7 °C 29.8in /  1008.3hPa Calm     76.8% 0in /  0.0mm
23:59 54.9 °F /  12.7 °C 47.8 °F /  8.8 °C 29.8in /  1008.3hPa Calm     77% 0in /  0.0mm
Murcia-Puente Tocinos, España
Compliments of Weather Underground - 2.75 mb

La estación de MeteoMurcia.com, publica sus datos en los siguientes proyectos:

Weather Underground PWS IMURCIAP2 Meteoclimatic www.awekas.at

W3Counter
Web Analytics